createdAt,value
2018-04-18T00:01:51.524Z,13.10
2018-04-18T00:04:20.180Z,13.00
2018-04-18T00:06:48.048Z,13.00
2018-04-18T00:09:15.843Z,13.00
2018-04-18T00:11:43.680Z,12.90
2018-04-18T00:14:11.548Z,12.90
2018-04-18T00:16:39.418Z,12.90
2018-04-18T00:19:07.281Z,12.90
2018-04-18T00:21:35.148Z,12.90
2018-04-18T00:24:03.020Z,12.80
2018-04-18T00:26:30.884Z,12.80
2018-04-18T00:28:58.752Z,12.80
2018-04-18T00:31:26.617Z,12.80
2018-04-18T00:33:54.485Z,12.70
2018-04-18T00:36:22.354Z,12.70
2018-04-18T00:38:50.220Z,12.70
2018-04-18T00:41:18.089Z,12.70
2018-04-18T00:43:45.955Z,12.70
2018-04-18T00:46:14.576Z,12.70
2018-04-18T00:48:43.225Z,12.70
2018-04-18T00:51:11.093Z,12.60
2018-04-18T00:53:38.960Z,12.70
2018-04-18T00:56:06.827Z,12.70
2018-04-18T00:58:34.695Z,12.60
2018-04-18T01:01:02.562Z,12.60
2018-04-18T01:03:30.430Z,12.60
2018-04-18T01:05:58.297Z,12.50
2018-04-18T01:08:26.164Z,12.50
2018-04-18T01:10:54.032Z,12.50
2018-04-18T01:13:21.899Z,12.50
2018-04-18T01:15:49.767Z,12.50
2018-04-18T01:18:17.633Z,12.50
2018-04-18T01:20:45.501Z,12.50
2018-04-18T01:23:13.372Z,12.40
2018-04-18T01:25:41.239Z,12.50
2018-04-18T01:28:09.103Z,12.50
2018-04-18T01:30:36.969Z,12.50
2018-04-18T01:33:04.836Z,12.50
2018-04-18T01:35:32.704Z,12.40
2018-04-18T01:38:00.574Z,12.40
2018-04-18T01:40:28.438Z,12.40
2018-04-18T01:42:56.306Z,12.30
2018-04-18T01:45:24.173Z,12.30
2018-04-18T01:47:52.040Z,12.30
2018-04-18T01:50:19.907Z,12.30
2018-04-18T01:52:47.775Z,12.20
2018-04-18T01:55:15.643Z,12.20
2018-04-18T01:57:43.510Z,12.10
2018-04-18T02:00:11.381Z,12.10
2018-04-18T02:02:39.245Z,12.10
2018-04-18T02:05:07.115Z,12.00
2018-04-18T02:07:34.979Z,11.90
2018-04-18T02:10:02.847Z,12.00
2018-04-18T02:12:30.713Z,12.00
2018-04-18T02:14:58.581Z,12.00
2018-04-18T02:17:26.447Z,12.00
2018-04-18T02:19:54.314Z,12.00
2018-04-18T02:22:22.182Z,12.00
2018-04-18T02:24:50.049Z,12.00
2018-04-18T02:27:17.916Z,12.00
2018-04-18T02:29:45.783Z,11.90
2018-04-18T02:32:13.651Z,11.90
2018-04-18T02:34:41.519Z,11.90
2018-04-18T02:37:09.385Z,11.80
2018-04-18T02:39:37.253Z,11.80
2018-04-18T02:42:05.223Z,11.70
2018-04-18T02:44:33.090Z,11.70
2018-04-18T02:47:00.957Z,11.70
2018-04-18T02:49:28.823Z,11.70
2018-04-18T02:51:56.693Z,11.60
2018-04-18T02:54:24.763Z,11.60
2018-04-18T02:56:52.629Z,11.60
2018-04-18T02:59:20.497Z,11.60
2018-04-18T03:01:48.364Z,11.50
2018-04-18T03:04:16.232Z,11.50
2018-04-18T03:06:44.100Z,11.40
2018-04-18T03:09:11.965Z,11.40
2018-04-18T03:11:39.833Z,11.30
2018-04-18T03:14:07.700Z,11.30
2018-04-18T03:16:35.567Z,11.30
2018-04-18T03:19:03.435Z,11.20
2018-04-18T03:21:31.302Z,11.20
2018-04-18T03:23:59.170Z,11.20
2018-04-18T03:26:27.038Z,11.20
2018-04-18T03:28:54.907Z,11.10
2018-04-18T03:31:22.772Z,11.10
2018-04-18T03:33:51.462Z,11.00
2018-04-18T03:36:19.328Z,11.00
2018-04-18T03:38:47.194Z,11.00
2018-04-18T03:41:15.062Z,11.00
2018-04-18T03:43:42.930Z,11.00
2018-04-18T03:46:10.796Z,11.00
2018-04-18T03:48:38.664Z,11.00
2018-04-18T03:51:06.537Z,10.90
2018-04-18T03:53:34.398Z,10.90
2018-04-18T03:56:02.264Z,10.80
2018-04-18T03:58:30.131Z,10.80
2018-04-18T04:00:57.998Z,10.70
2018-04-18T04:03:25.866Z,10.70
2018-04-18T04:05:53.736Z,10.70
2018-04-18T04:08:21.474Z,10.70
2018-04-18T04:10:49.193Z,10.70
2018-04-18T04:13:17.847Z,10.70
2018-04-18T04:15:45.715Z,10.60
2018-04-18T04:18:25.570Z,10.60
2018-04-18T04:21:05.319Z,10.60
2018-04-18T04:23:45.157Z,10.60
2018-04-18T04:26:13.025Z,10.60
2018-04-18T04:28:40.894Z,10.50
2018-04-18T04:31:11.999Z,10.40
2018-04-18T04:33:42.870Z,10.40
2018-04-18T04:36:13.737Z,10.40
2018-04-18T04:38:44.488Z,10.30
2018-04-18T04:41:18.978Z,10.30
2018-04-18T04:44:01.056Z,10.40
2018-04-18T04:46:31.467Z,10.40
2018-04-18T04:49:00.041Z,10.40
2018-04-18T04:51:27.813Z,10.40
2018-04-18T04:53:55.548Z,10.40
2018-04-18T04:56:24.206Z,10.50
2018-04-18T04:58:52.062Z,10.50
2018-04-18T05:01:19.933Z,10.50
2018-04-18T05:03:47.798Z,10.60
2018-04-18T05:06:15.596Z,10.60
2018-04-18T05:08:44.259Z,10.70
2018-04-18T05:11:12.115Z,10.70
2018-04-18T05:13:39.983Z,10.90
2018-04-18T05:16:07.851Z,11.20
2018-04-18T05:18:35.719Z,11.50
2018-04-18T05:21:03.586Z,12.00
2018-04-18T05:23:31.452Z,12.50
2018-04-18T05:25:59.320Z,13.00
2018-04-18T05:28:27.180Z,13.30
2018-04-18T05:30:55.111Z,13.50
2018-04-18T05:33:23.742Z,13.80
2018-04-18T05:35:51.614Z,13.70
2018-04-18T05:38:19.476Z,13.80
2018-04-18T05:40:47.343Z,13.90
2018-04-18T05:43:15.140Z,13.90
2018-04-18T05:45:43.795Z,13.80
2018-04-18T05:48:11.665Z,13.80
2018-04-18T05:50:40.348Z,13.90
2018-04-18T05:53:08.216Z,13.90
2018-04-18T05:55:36.084Z,14.00
2018-04-18T05:58:03.951Z,14.00
2018-04-18T06:00:31.818Z,14.00
2018-04-18T06:02:59.686Z,14.00
2018-04-18T06:05:27.553Z,14.10
2018-04-18T06:07:55.456Z,14.10
2018-04-18T06:10:24.106Z,14.50
2018-04-18T06:12:51.983Z,14.50
2018-04-18T06:15:19.841Z,14.80
2018-04-18T06:17:47.709Z,15.10
2018-04-18T06:20:15.576Z,15.40
2018-04-18T06:22:43.444Z,16.00
2018-04-18T06:25:11.310Z,17.20
2018-04-18T06:27:39.178Z,18.80
2018-04-18T06:30:07.045Z,19.90
2018-04-18T06:32:34.911Z,20.90
2018-04-18T06:35:02.780Z,21.60
2018-04-18T06:37:30.646Z,22.90
2018-04-18T06:39:58.517Z,24.10
2018-04-18T06:42:26.382Z,25.50
2018-04-18T06:44:54.249Z,27.00
2018-04-18T06:47:22.117Z,28.30
2018-04-18T06:49:49.983Z,29.10
2018-04-18T06:52:17.851Z,29.60
2018-04-18T06:54:45.718Z,29.90
2018-04-18T06:57:13.588Z,30.60
2018-04-18T06:59:41.457Z,31.00
2018-04-18T07:02:09.321Z,31.90
2018-04-18T07:04:37.187Z,32.50
2018-04-18T07:07:05.056Z,33.40
2018-04-18T07:09:32.924Z,33.80
2018-04-18T07:12:00.790Z,33.60
2018-04-18T07:14:28.657Z,33.40
2018-04-18T07:16:56.525Z,32.90
2018-04-18T07:19:24.393Z,32.20
2018-04-18T07:21:52.260Z,30.80
